Time;durP1;ratioP1;P1;durP2;ratioP2;P2;SDS_P1;SDS_P2;PMS_P1;PMS_P2;Temp;Humidity;BMP_temperature;BMP_pressure;BME280_temperature;BME280_humidity;BME280_pressure;Samples;Min_cycle;Max_cycle;Signal;HPM_P1;HPM_P2
2023/01/17 00:02:07;;;;;;;4.50;1.63;;;6.60;76.80;;;;;;5058148;28;20579;-69
2023/01/17 00:10:11;;;;;;;7.15;1.98;;;6.60;76.60;;;;;;5057098;28;20221;-69
2023/01/17 00:12:46;;;;;;;5.55;1.70;;;6.60;76.70;;;;;;5059701;28;20206;-70
2023/01/17 00:15:15;;;;;;;4.70;1.77;;;6.60;76.70;;;;;;5059560;28;20289;-69
2023/01/17 00:17:43;;;;;;;4.82;1.55;;;6.60;76.70;;;;;;5055443;28;20267;-69
2023/01/17 01:35:53;;;;;;;4.32;1.90;;;6.40;75.80;;;;;;5045794;28;20205;-68
2023/01/17 01:38:23;;;;;;;8.40;2.33;;;6.50;75.80;;;;;;5050481;28;20232;-68
2023/01/17 01:40:54;;;;;;;4.75;1.95;;;6.50;76.00;;;;;;5047355;28;20200;-68
2023/01/17 01:43:40;;;;;;;7.05;2.70;;;6.50;75.80;;;;;;5050421;28;20215;-68
2023/01/17 01:46:11;;;;;;;6.05;2.17;;;6.50;75.70;;;;;;5048010;28;20216;-70
2023/01/17 01:48:45;;;;;;;6.72;2.40;;;6.50;75.40;;;;;;5048639;28;20227;-69
2023/01/17 01:51:19;;;;;;;6.15;2.13;;;6.50;75.40;;;;;;5051174;28;20250;-69
2023/01/17 01:53:50;;;;;;;5.68;1.98;;;6.50;75.30;;;;;;5046841;28;20200;-69
2023/01/17 01:56:22;;;;;;;6.10;2.10;;;6.50;75.30;;;;;;5044084;28;20258;-69
2023/01/17 01:58:52;;;;;;;7.38;2.65;;;6.40;75.40;;;;;;5047854;28;20217;-69
2023/01/17 02:01:20;;;;;;;7.13;2.20;;;6.40;75.40;;;;;;5056204;28;20205;-69
2023/01/17 02:03:49;;;;;;;6.05;2.30;;;6.50;75.40;;;;;;5045061;28;20219;-69
2023/01/17 02:06:28;;;;;;;6.63;2.60;;;6.50;75.10;;;;;;5045302;28;20205;-70
2023/01/17 02:09:01;;;;;;;6.13;2.38;;;6.40;75.00;;;;;;5044120;28;20232;-69
2023/01/17 02:11:30;;;;;;;6.50;2.30;;;6.40;74.90;;;;;;5043924;28;20246;-69
2023/01/17 02:13:58;;;;;;;7.50;2.72;;;6.40;74.80;;;;;;5043275;28;20209;-68
2023/01/17 02:16:36;;;;;;;5.90;2.10;;;6.40;74.70;;;;;;5043728;28;20209;-68
2023/01/17 02:19:48;;;;;;;6.35;2.42;;;6.40;74.60;;;;;;5045290;28;20215;-68
2023/01/17 02:22:55;;;;;;;5.75;2.42;;;6.30;74.80;;;;;;5047730;28;21877;-69
2023/01/17 02:25:52;;;;;;;4.70;2.08;;;6.30;74.60;;;;;;5045471;28;20212;-69
2023/01/17 02:28:40;;;;;;;5.25;2.30;;;6.30;74.30;;;;;;5008289;28;20294;-69
2023/01/17 02:31:14;;;;;;;5.93;2.60;;;6.20;74.40;;;;;;5045608;28;20203;-68
2023/01/17 02:33:49;;;;;;;9.60;2.47;;;6.20;74.40;;;;;;5048269;28;20246;-69
2023/01/17 02:36:23;;;;;;;7.03;2.20;;;6.20;74.40;;;;;;5046826;28;20258;-69
2023/01/17 02:38:56;;;;;;;5.05;2.30;;;6.20;74.30;;;;;;5051077;28;21049;-69
2023/01/17 02:41:30;;;;;;;4.95;2.03;;;6.20;74.00;;;;;;5044907;28;20912;-69
2023/01/17 02:43:58;;;;;;;5.40;2.65;;;6.20;73.90;;;;;;5050178;28;20207;-69
2023/01/17 02:46:27;;;;;;;6.85;2.58;;;6.20;74.00;;;;;;5045043;28;20209;-69
2023/01/17 02:48:57;;;;;;;6.53;2.38;;;6.20;74.10;;;;;;5049953;28;21293;-69
2023/01/17 02:51:55;;;;;;;9.60;2.50;;;6.20;74.10;;;;;;5048535;28;20943;-70
2023/01/17 02:54:33;;;;;;;5.00;2.55;;;6.20;74.00;;;;;;5045513;28;20193;-69
2023/01/17 02:57:19;;;;;;;6.47;2.58;;;6.20;73.90;;;;;;5044703;28;20200;-69
2023/01/17 02:59:53;;;;;;;5.93;2.45;;;6.20;73.90;;;;;;5056608;28;20703;-69
2023/01/17 03:02:27;;;;;;;3.95;2.05;;;6.20;73.90;;;;;;5039387;28;20246;-68
2023/01/17 03:05:01;;;;;;;7.70;2.90;;;6.20;73.80;;;;;;5038784;28;20204;-69
2023/01/17 03:07:30;;;;;;;7.65;3.20;;;6.20;73.70;;;;;;5049199;28;20285;-69
2023/01/17 03:10:00;;;;;;;5.80;2.60;;;6.20;73.70;;;;;;5047153;28;20204;-68
2023/01/17 03:12:29;;;;;;;8.73;3.20;;;6.20;73.50;;;;;;5044863;28;20809;-69
2023/01/17 03:14:57;;;;;;;4.70;2.35;;;6.10;73.50;;;;;;5044416;28;20302;-70
2023/01/17 03:17:32;;;;;;;6.70;2.92;;;6.20;73.30;;;;;;5041992;28;21144;-69
2023/01/17 03:20:00;;;;;;;7.15;2.72;;;6.10;73.30;;;;;;5041292;28;20219;-70
2023/01/17 03:22:27;;;;;;;6.43;2.80;;;6.20;73.40;;;;;;5040360;28;20204;-68
2023/01/17 03:24:55;;;;;;;5.63;2.60;;;6.10;73.40;;;;;;5045051;28;20217;-69
2023/01/17 03:27:23;;;;;;;6.85;2.58;;;6.20;73.40;;;;;;5048287;28;20945;-69
2023/01/17 03:29:51;;;;;;;7.53;2.50;;;6.20;73.30;;;;;;5044462;28;20320;-69
2023/01/17 03:32:19;;;;;;;5.47;2.60;;;6.20;73.30;;;;;;5051025;28;20566;-68
2023/01/17 03:34:48;;;;;;;10.27;3.15;;;6.20;73.10;;;;;;5045152;28;20745;-68
2023/01/17 03:37:18;;;;;;;6.85;3.35;;;6.20;73.10;;;;;;5043694;28;20223;-69
2023/01/17 03:39:46;;;;;;;6.22;2.47;;;6.20;72.90;;;;;;5043659;28;20216;-69
2023/01/17 03:42:13;;;;;;;6.35;2.75;;;6.20;73.00;;;;;;5040833;28;20277;-69
2023/01/17 03:44:41;;;;;;;7.25;3.08;;;6.20;73.00;;;;;;5039465;28;20701;-68
2023/01/17 03:47:10;;;;;;;5.80;2.80;;;6.20;72.90;;;;;;5039629;28;20831;-69
2023/01/17 03:49:39;;;;;;;6.72;2.50;;;6.20;72.50;;;;;;5047564;28;20205;-69
2023/01/17 03:52:08;;;;;;;9.82;2.92;;;6.10;72.60;;;;;;5041521;28;20243;-69
2023/01/17 03:54:36;;;;;;;6.15;2.95;;;6.10;72.60;;;;;;5047045;28;20284;-68
2023/01/17 03:57:04;;;;;;;6.28;2.20;;;6.10;72.60;;;;;;5044558;28;20759;-69
2023/01/17 03:59:32;;;;;;;7.43;3.00;;;6.10;72.70;;;;;;5048815;28;20201;-67
2023/01/17 04:02:00;;;;;;;5.10;2.30;;;6.10;72.70;;;;;;5048313;28;20209;-69
2023/01/17 04:04:28;;;;;;;8.35;2.72;;;6.10;72.70;;;;;;5053832;28;20204;-69
2023/01/17 04:06:56;;;;;;;9.77;2.80;;;6.00;72.40;;;;;;5053397;28;20228;-69
2023/01/17 04:09:26;;;;;;;7.03;2.75;;;6.00;72.30;;;;;;5054002;28;20262;-69
2023/01/17 04:11:54;;;;;;;4.80;2.40;;;5.90;72.40;;;;;;5048602;28;20209;-68
2023/01/17 04:14:22;;;;;;;5.28;2.55;;;5.90;72.40;;;;;;5048443;28;20209;-70
2023/01/17 04:16:50;;;;;;;5.95;2.67;;;5.90;72.40;;;;;;5047063;28;20608;-69
2023/01/17 04:19:18;;;;;;;7.63;2.90;;;5.90;72.40;;;;;;5053758;28;20235;-68
2023/01/17 04:21:46;;;;;;;8.82;2.53;;;5.90;72.40;;;;;;5042350;28;20210;-68
2023/01/17 04:24:14;;;;;;;5.60;2.80;;;5.90;72.20;;;;;;5047375;28;21073;-72
2023/01/17 04:26:46;;;;;;;3.92;2.00;;;5.90;72.30;;;;;;5045946;28;20196;-71
2023/01/17 04:29:14;;;;;;;8.50;3.58;;;5.90;72.20;;;;;;5047298;28;20854;-69
2023/01/17 04:31:41;;;;;;;7.78;2.65;;;5.80;72.10;;;;;;5053194;28;20934;-67
2023/01/17 04:34:10;;;;;;;5.10;2.60;;;5.80;72.00;;;;;;5052065;28;20196;-69
2023/01/17 04:36:38;;;;;;;5.00;2.90;;;5.80;71.90;;;;;;5051659;28;20274;-70
2023/01/17 04:39:06;;;;;;;7.22;2.70;;;5.70;71.90;;;;;;5050559;28;20220;-71
2023/01/17 04:41:34;;;;;;;7.88;3.38;;;5.70;71.90;;;;;;5051774;28;20289;-69
2023/01/17 04:44:04;;;;;;;5.40;2.53;;;5.70;71.90;;;;;;5044683;28;20209;-69
2023/01/17 04:46:32;;;;;;;4.50;2.30;;;5.60;72.00;;;;;;5045471;28;20994;-70
2023/01/17 04:49:00;;;;;;;5.55;2.60;;;5.60;72.00;;;;;;5049668;28;20228;-67
2023/01/17 04:51:28;;;;;;;6.43;3.15;;;5.60;71.90;;;;;;5047897;28;20209;-68
2023/01/17 04:53:56;;;;;;;5.63;2.65;;;5.60;71.90;;;;;;5046620;28;20200;-68
2023/01/17 04:56:24;;;;;;;5.53;2.58;;;5.60;72.00;;;;;;5049095;28;20207;-68
2023/01/17 04:58:52;;;;;;;6.13;3.03;;;5.60;72.00;;;;;;5045417;28;20640;-68
2023/01/17 05:01:21;;;;;;;5.70;2.83;;;5.60;72.00;;;;;;5050470;28;20748;-69
2023/01/17 05:03:49;;;;;;;5.72;2.80;;;5.60;71.90;;;;;;5047667;28;20196;-67
2023/01/17 05:06:17;;;;;;;5.50;2.47;;;5.60;71.90;;;;;;5050035;28;20234;-69
2023/01/17 05:08:45;;;;;;;6.80;2.40;;;5.60;71.90;;;;;;5047952;28;20232;-69
2023/01/17 05:11:13;;;;;;;5.18;2.60;;;5.60;71.90;;;;;;5046770;28;20278;-69
2023/01/17 05:13:41;;;;;;;5.93;3.30;;;5.60;71.90;;;;;;5044104;28;20370;-69
2023/01/17 05:16:09;;;;;;;9.80;2.83;;;5.50;71.90;;;;;;5048189;28;20197;-69
2023/01/17 05:18:38;;;;;;;7.47;3.10;;;5.50;71.90;;;;;;5052342;28;20239;-69
2023/01/17 05:21:06;;;;;;;6.50;2.92;;;5.50;71.90;;;;;;5049795;28;20232;-70
2023/01/17 05:23:34;;;;;;;6.93;3.15;;;5.50;71.90;;;;;;5050304;28;20786;-71
2023/01/17 05:26:02;;;;;;;6.65;3.00;;;5.50;72.00;;;;;;5044382;28;20224;-69
2023/01/17 05:28:30;;;;;;;8.85;3.70;;;5.40;72.10;;;;;;5044363;28;20771;-72
2023/01/17 05:30:58;;;;;;;7.55;3.63;;;5.40;72.10;;;;;;5044139;28;20270;-70
2023/01/17 05:33:26;;;;;;;5.35;3.10;;;5.40;72.20;;;;;;5042805;28;20677;-70
2023/01/17 05:35:55;;;;;;;7.47;2.83;;;5.40;72.20;;;;;;5047676;28;20340;-68
2023/01/17 05:38:23;;;;;;;6.05;3.22;;;5.40;72.10;;;;;;5047170;28;20754;-69
2023/01/17 05:40:51;;;;;;;6.70;2.97;;;5.40;72.20;;;;;;5043443;28;20294;-69
2023/01/17 05:43:19;;;;;;;6.22;2.97;;;5.40;72.20;;;;;;5046554;28;20265;-69
2023/01/17 05:45:49;;;;;;;5.32;3.22;;;5.30;72.20;;;;;;5046663;28;20220;-70
2023/01/17 05:48:17;;;;;;;7.50;3.90;;;5.30;72.30;;;;;;5048563;28;20781;-70
2023/01/17 05:50:45;;;;;;;5.43;2.95;;;5.30;72.20;;;;;;5050016;28;20297;-69
2023/01/17 05:53:16;;;;;;;9.98;3.47;;;5.30;72.20;;;;;;5049879;28;20290;-69
2023/01/17 05:55:44;;;;;;;6.93;3.22;;;5.30;72.20;;;;;;5048666;28;20211;-69
2023/01/17 05:58:15;;;;;;;8.25;2.63;;;5.30;72.20;;;;;;5042395;28;20290;-68
2023/01/17 06:00:44;;;;;;;7.82;3.70;;;5.20;72.30;;;;;;5043747;28;20614;-69
2023/01/17 06:03:12;;;;;;;8.05;3.33;;;5.30;72.40;;;;;;5052688;28;20665;-69
2023/01/17 06:05:41;;;;;;;7.40;3.67;;;5.30;72.50;;;;;;5045925;28;20204;-70
2023/01/17 06:08:10;;;;;;;9.85;2.83;;;5.30;72.50;;;;;;5046062;28;20224;-68
2023/01/17 06:10:39;;;;;;;5.78;2.90;;;5.30;72.40;;;;;;5050106;28;20195;-70
2023/01/17 06:13:08;;;;;;;7.28;2.72;;;5.30;72.50;;;;;;5044135;28;20204;-69
2023/01/17 06:15:37;;;;;;;9.85;3.42;;;5.30;72.40;;;;;;5040807;28;20208;-71
2023/01/17 06:18:06;;;;;;;5.45;2.90;;;5.30;72.50;;;;;;5042730;28;20893;-69
2023/01/17 06:20:34;;;;;;;9.88;3.35;;;5.30;72.40;;;;;;5042446;28;20205;-69
2023/01/17 06:23:03;;;;;;;7.95;3.53;;;5.30;72.40;;;;;;5044974;28;20208;-71
2023/01/17 06:25:35;;;;;;;5.45;2.90;;;5.30;72.40;;;;;;5046107;28;20285;-71
2023/01/17 06:28:05;;;;;;;10.93;3.88;;;5.30;72.50;;;;;;5045678;28;20244;-69
2023/01/17 06:30:33;;;;;;;5.15;2.67;;;5.30;72.40;;;;;;5050984;28;20215;-69
2023/01/17 06:33:01;;;;;;;6.38;2.95;;;5.30;72.40;;;;;;5049503;28;20188;-69
2023/01/17 06:35:30;;;;;;;7.22;4.00;;;5.30;72.40;;;;;;5049906;28;20212;-69
2023/01/17 06:37:59;;;;;;;6.43;2.75;;;5.30;72.40;;;;;;5047203;28;20220;-68
2023/01/17 06:40:28;;;;;;;8.80;3.35;;;5.20;72.50;;;;;;5043778;28;20204;-71
2023/01/17 06:42:59;;;;;;;6.97;2.85;;;5.20;72.40;;;;;;5043047;28;20656;-70
2023/01/17 06:45:29;;;;;;;5.05;2.72;;;5.20;72.50;;;;;;5053048;28;20196;-70
2023/01/17 06:47:59;;;;;;;6.68;2.95;;;5.20;72.50;;;;;;5045041;28;20316;-70
2023/01/17 06:50:27;;;;;;;7.50;2.63;;;5.20;72.40;;;;;;5059716;28;20312;-71
2023/01/17 06:52:56;;;;;;;14.02;3.38;;;5.10;72.40;;;;;;5043993;28;20612;-70
2023/01/17 06:55:27;;;;;;;7.40;2.58;;;5.10;72.60;;;;;;5042828;28;20207;-69
2023/01/17 06:57:55;;;;;;;5.05;2.78;;;5.20;72.70;;;;;;5045870;28;20256;-70
2023/01/17 07:00:24;;;;;;;6.45;2.72;;;5.20;72.70;;;;;;5045930;28;20204;-70
2023/01/17 07:02:53;;;;;;;5.28;3.10;;;5.20;72.70;;;;;;5052223;28;20216;-72
2023/01/17 07:05:21;;;;;;;5.45;2.80;;;5.30;72.60;;;;;;5047316;28;20258;-67
2023/01/17 07:07:58;;;;;;;5.32;3.40;;;5.30;72.60;;;;;;5046313;28;20216;-69
2023/01/17 07:10:26;;;;;;;4.70;2.83;;;5.30;72.60;;;;;;5040443;28;20196;-71
2023/01/17 07:12:58;;;;;;;6.15;2.78;;;5.30;72.60;;;;;;5046245;28;20193;-67
2023/01/17 07:15:26;;;;;;;4.93;2.53;;;5.30;72.60;;;;;;5046261;28;20195;-72
2023/01/17 07:17:55;;;;;;;5.93;3.03;;;5.30;72.50;;;;;;5050808;28;20235;-72
2023/01/17 07:20:23;;;;;;;5.90;2.85;;;5.30;72.50;;;;;;5050464;28;20205;-70
2023/01/17 07:22:51;;;;;;;6.20;3.08;;;5.20;72.40;;;;;;5049037;28;20907;-71
2023/01/17 07:25:19;;;;;;;4.88;2.35;;;5.20;72.30;;;;;;5043820;28;20590;-70
2023/01/17 07:27:48;;;;;;;5.35;2.58;;;5.10;72.40;;;;;;5044208;28;20227;-71
2023/01/17 07:30:16;;;;;;;5.22;2.70;;;5.10;72.40;;;;;;5040106;28;20261;-69
2023/01/17 07:32:44;;;;;;;7.15;2.83;;;5.10;72.40;;;;;;5041818;28;20624;-69
2023/01/17 07:35:13;;;;;;;6.38;3.00;;;5.10;72.50;;;;;;5049469;28;20212;-70
2023/01/17 07:37:47;;;;;;;7.13;2.78;;;5.10;72.50;;;;;;5049258;28;20863;-71
2023/01/17 07:40:16;;;;;;;6.07;2.80;;;5.00;72.40;;;;;;5053444;28;20322;-71
2023/01/17 07:42:44;;;;;;;6.13;3.60;;;5.00;72.50;;;;;;5061921;28;20215;-69
2023/01/17 07:45:13;;;;;;;5.15;3.05;;;5.00;72.50;;;;;;5056048;28;21538;-69
2023/01/17 07:47:42;;;;;;;5.55;2.45;;;5.00;72.40;;;;;;5055214;28;20236;-70
2023/01/17 07:50:11;;;;;;;6.53;2.67;;;5.00;72.50;;;;;;5057301;28;20211;-72
2023/01/17 07:52:41;;;;;;;7.53;2.95;;;5.00;72.50;;;;;;5056212;28;20209;-71
2023/01/17 07:55:09;;;;;;;8.13;4.28;;;4.90;72.50;;;;;;5054800;28;20209;-70
2023/01/17 07:57:37;;;;;;;7.53;4.30;;;4.90;72.30;;;;;;5052170;28;20282;-71
2023/01/17 08:00:07;;;;;;;8.75;3.97;;;4.80;72.40;;;;;;5048478;28;20668;-70
2023/01/17 08:02:40;;;;;;;9.35;4.10;;;4.80;72.40;;;;;;5052061;28;20910;-70
2023/01/17 08:05:09;;;;;;;14.32;7.25;;;4.70;72.50;;;;;;5056692;28;20200;-70
2023/01/17 08:07:37;;;;;;;12.90;7.15;;;4.70;72.50;;;;;;5049296;28;20675;-70
2023/01/17 08:10:11;;;;;;;15.80;9.30;;;4.70;72.50;;;;;;5050103;28;20225;-70
2023/01/17 08:12:39;;;;;;;19.35;10.88;;;4.70;72.60;;;;;;5047383;28;20192;-69
2023/01/17 08:15:09;;;;;;;11.40;6.07;;;4.70;72.60;;;;;;5049731;28;20204;-69
2023/01/17 08:17:37;;;;;;;18.20;9.50;;;4.70;72.70;;;;;;5055096;28;20337;-69
2023/01/17 08:20:05;;;;;;;25.88;14.18;;;4.70;72.60;;;;;;5056829;28;20551;-69
2023/01/17 08:22:33;;;;;;;30.02;16.25;;;4.60;72.60;;;;;;5053313;28;20293;-70
2023/01/17 08:25:01;;;;;;;27.73;14.98;;;4.60;72.60;;;;;;5046803;28;20200;-71
2023/01/17 08:27:30;;;;;;;22.73;14.20;;;4.60;72.60;;;;;;5045364;28;20225;-70
2023/01/17 08:29:59;;;;;;;28.17;14.95;;;4.50;72.60;;;;;;5049537;28;20273;-70
2023/01/17 08:32:27;;;;;;;183.38;74.07;;;4.50;72.70;;;;;;5052438;28;20227;-71
2023/01/17 08:34:56;;;;;;;97.57;36.40;;;4.50;72.90;;;;;;5045213;28;20211;-70
2023/01/17 08:37:24;;;;;;;13.77;7.32;;;4.50;72.80;;;;;;5046195;28;20972;-71
2023/01/17 08:39:52;;;;;;;41.28;20.30;;;4.50;72.90;;;;;;5044913;28;20446;-70
2023/01/17 08:42:20;;;;;;;57.05;24.13;;;4.50;73.00;;;;;;5045711;28;20763;-71
2023/01/17 08:44:49;;;;;;;86.47;37.45;;;4.50;73.20;;;;;;5051381;28;20200;-70
2023/01/17 08:47:17;;;;;;;69.25;31.45;;;4.60;73.20;;;;;;5051477;28;20818;-70
2023/01/17 08:49:45;;;;;;;39.45;19.67;;;4.60;73.20;;;;;;5054803;28;20736;-69
2023/01/17 08:52:13;;;;;;;19.90;9.93;;;4.70;73.30;;;;;;5047439;28;20197;-70
2023/01/17 08:54:41;;;;;;;19.00;8.10;;;4.70;73.30;;;;;;5046120;28;20380;-69
2023/01/17 08:57:09;;;;;;;7.28;4.00;;;4.80;73.40;;;;;;5046474;28;20276;-68
2023/01/17 08:59:37;;;;;;;7.45;3.88;;;4.80;73.40;;;;;;5047649;28;20200;-68
2023/01/17 09:02:13;;;;;;;7.20;3.28;;;4.80;73.30;;;;;;5047426;28;20216;-68
2023/01/17 09:04:44;;;;;;;7.50;3.58;;;4.90;73.40;;;;;;5047645;28;20200;-70
2023/01/17 09:07:12;;;;;;;7.28;3.65;;;4.90;73.40;;;;;;5048664;28;20201;-70
2023/01/17 09:09:40;;;;;;;6.43;3.33;;;4.90;73.40;;;;;;5045337;28;20193;-70
2023/01/17 09:12:08;;;;;;;10.38;3.55;;;4.90;73.50;;;;;;5044446;28;20208;-70
2023/01/17 09:14:36;;;;;;;8.63;2.90;;;5.00;73.40;;;;;;5054265;28;20204;-68
2023/01/17 09:17:05;;;;;;;6.75;3.10;;;5.00;73.50;;;;;;5058073;28;20216;-68
2023/01/17 09:19:34;;;;;;;7.30;2.92;;;5.00;73.50;;;;;;5050338;28;20201;-70
2023/01/17 09:22:03;;;;;;;5.20;2.80;;;5.00;73.50;;;;;;5049670;28;20283;-69
2023/01/17 09:24:32;;;;;;;6.68;3.45;;;5.10;73.40;;;;;;5050813;28;20211;-70
2023/01/17 09:27:00;;;;;;;7.20;3.60;;;5.10;73.40;;;;;;5045919;28;20204;-70
2023/01/17 09:29:28;;;;;;;6.72;4.00;;;5.10;73.50;;;;;;5047713;28;20204;-68
2023/01/17 09:31:56;;;;;;;7.15;3.80;;;5.20;73.50;;;;;;5046988;28;20273;-69
2023/01/17 09:34:25;;;;;;;9.35;3.85;;;5.20;73.40;;;;;;5043855;28;20189;-70
2023/01/17 09:36:55;;;;;;;7.90;3.70;;;5.20;73.40;;;;;;5051721;28;20211;-69
2023/01/17 09:39:23;;;;;;;7.97;3.60;;;5.20;73.40;;;;;;5050250;28;20247;-70
2023/01/17 09:42:00;;;;;;;6.38;3.35;;;5.20;73.40;;;;;;5047577;28;20207;-69
2023/01/17 09:44:35;;;;;;;10.13;4.63;;;5.20;73.50;;;;;;5047790;28;20223;-68
2023/01/17 09:47:14;;;;;;;9.07;3.85;;;5.20;73.50;;;;;;5048020;28;20215;-70
2023/01/17 09:49:45;;;;;;;12.93;5.75;;;5.30;73.50;;;;;;5049711;28;20601;-68
2023/01/17 09:52:16;;;;;;;12.00;6.38;;;5.30;73.50;;;;;;5050486;28;20310;-70
2023/01/17 09:54:46;;;;;;;11.25;6.15;;;5.30;73.50;;;;;;5047249;28;20200;-70
2023/01/17 09:57:28;;;;;;;15.90;6.88;;;5.30;73.50;;;;;;5045981;28;20196;-71
2023/01/17 10:00:03;;;;;;;16.83;7.80;;;5.30;73.50;;;;;;5047437;28;20684;-71
2023/01/17 10:02:58;;;;;;;14.10;5.20;;;5.30;73.50;;;;;;5051375;28;20245;-70
2023/01/17 10:05:38;;;;;;;7.75;4.35;;;5.30;73.50;;;;;;5044909;28;20201;-70
2023/01/17 10:08:19;;;;;;;12.60;4.45;;;5.40;73.50;;;;;;5044231;28;20694;-70
2023/01/17 10:11:01;;;;;;;8.55;4.13;;;5.30;73.60;;;;;;5046371;28;20205;-71
2023/01/17 10:13:37;;;;;;;7.30;3.70;;;5.30;73.70;;;;;;5047509;28;20196;-68
2023/01/17 10:16:20;;;;;;;9.02;4.18;;;5.40;73.70;;;;;;5053161;28;20904;-70
2023/01/17 10:19:12;;;;;;;8.00;4.28;;;5.40;73.70;;;;;;5050087;28;20255;-70
2023/01/17 10:22:01;;;;;;;8.73;4.22;;;5.40;73.80;;;;;;5057573;28;20201;-69
2023/01/17 10:24:58;;;;;;;7.75;4.47;;;5.40;73.80;;;;;;5048042;28;20716;-70
2023/01/17 10:27:32;;;;;;;7.63;3.55;;;5.50;73.90;;;;;;5044945;28;20225;-70
2023/01/17 10:30:01;;;;;;;10.15;4.40;;;5.50;74.00;;;;;;5040993;28;20250;-70
2023/01/17 10:32:32;;;;;;;7.15;3.53;;;5.60;74.10;;;;;;5040540;28;20205;-70
2023/01/17 10:35:05;;;;;;;7.57;3.72;;;5.70;74.10;;;;;;5043102;28;20200;-70
2023/01/17 10:37:40;;;;;;;8.30;4.05;;;5.70;74.00;;;;;;5035115;28;20221;-70
2023/01/17 10:40:17;;;;;;;6.57;3.50;;;5.70;74.00;;;;;;5041816;28;20290;-70
2023/01/17 10:42:51;;;;;;;6.47;3.55;;;5.80;74.10;;;;;;5058014;28;20230;-69
2023/01/17 10:45:27;;;;;;;8.43;4.07;;;5.80;74.10;;;;;;5048470;28;20219;-68
2023/01/17 10:48:04;;;;;;;11.55;4.10;;;5.80;74.10;;;;;;5045668;28;20224;-70
2023/01/17 10:50:41;;;;;;;10.57;3.95;;;5.90;74.10;;;;;;5045467;28;20195;-70
2023/01/17 10:53:32;;;;;;;10.30;4.07;;;5.90;73.90;;;;;;5050858;28;20203;-69
2023/01/17 10:56:01;;;;;;;8.90;4.40;;;5.90;73.90;;;;;;5046628;28;20931;-69
2023/01/17 10:58:30;;;;;;;7.97;4.53;;;5.90;73.90;;;;;;5044529;28;20213;-69
2023/01/17 11:01:01;;;;;;;8.40;4.25;;;6.00;73.90;;;;;;5048973;28;20205;-70
2023/01/17 11:03:29;;;;;;;8.90;4.20;;;6.00;73.90;;;;;;5051321;28;20316;-71
2023/01/17 11:06:19;;;;;;;7.38;3.63;;;6.00;73.90;;;;;;5047149;28;20730;-69
2023/01/17 11:08:53;;;;;;;10.70;4.68;;;6.00;73.80;;;;;;5048231;28;20219;-71
2023/01/17 11:11:23;;;;;;;12.32;4.30;;;6.10;73.80;;;;;;5053068;28;20193;-70
2023/01/17 11:13:54;;;;;;;6.30;3.92;;;6.10;73.90;;;;;;5044858;28;20220;-70
2023/01/17 11:16:24;;;;;;;7.72;3.70;;;6.10;73.80;;;;;;5041368;28;20254;-69
2023/01/17 11:19:07;;;;;;;11.57;4.22;;;6.10;73.80;;;;;;5042659;28;20987;-71
2023/01/17 11:21:39;;;;;;;8.07;4.32;;;6.20;73.70;;;;;;5042203;28;20660;-69
2023/01/17 11:24:17;;;;;;;9.90;4.30;;;6.10;73.50;;;;;;5041769;28;20227;-71
2023/01/17 11:26:48;;;;;;;9.45;4.40;;;6.10;73.40;;;;;;5048951;28;20255;-71
2023/01/17 11:29:30;;;;;;;5.35;3.05;;;6.10;73.30;;;;;;5054825;28;20252;-71
2023/01/17 11:32:16;;;;;;;7.72;3.13;;;6.10;73.20;;;;;;5049696;28;20213;-73
2023/01/17 11:35:06;;;;;;;8.15;4.15;;;6.10;73.20;;;;;;5044259;28;20200;-72
2023/01/17 11:37:35;;;;;;;7.80;4.20;;;6.20;73.20;;;;;;5053583;28;20766;-72
2023/01/17 11:40:09;;;;;;;6.75;3.33;;;6.20;73.10;;;;;;5049533;28;20249;-70
2023/01/17 11:42:38;;;;;;;5.68;3.05;;;6.20;73.00;;;;;;5043854;28;20196;-71
2023/01/17 11:45:24;;;;;;;6.28;2.88;;;6.20;72.80;;;;;;5045172;28;20251;-70
2023/01/17 11:48:15;;;;;;;6.00;2.65;;;6.20;72.70;;;;;;5050659;28;20236;-71
2023/01/17 11:50:47;;;;;;;5.65;2.72;;;6.20;72.70;;;;;;5053094;28;20616;-71
2023/01/17 11:53:21;;;;;;;7.05;3.10;;;6.20;72.50;;;;;;5045902;28;20200;-70
2023/01/17 11:56:04;;;;;;;6.72;2.72;;;6.30;72.50;;;;;;5051371;28;20197;-72
2023/01/17 11:58:34;;;;;;;5.90;3.00;;;6.30;72.20;;;;;;5049111;28;20886;-72
2023/01/17 12:01:26;;;;;;;7.95;3.35;;;6.30;72.00;;;;;;5045627;28;20207;-71
2023/01/17 12:04:19;;;;;;;24.58;13.60;;;6.30;71.80;;;;;;5035718;28;20208;-71
2023/01/17 12:06:59;;;;;;;12.10;6.28;;;6.30;71.70;;;;;;5032256;28;20197;-71
2023/01/17 12:09:34;;;;;;;11.85;5.40;;;6.30;71.60;;;;;;5038964;28;20288;-70
2023/01/17 12:15:06;;;;;;;6.88;2.78;;;6.30;71.40;;;;;;5047997;28;20662;-71
2023/01/17 12:17:51;;;;;;;9.25;4.57;;;6.30;71.30;;;;;;5050248;28;20848;-71
2023/01/17 12:20:26;;;;;;;12.07;7.15;;;6.30;71.20;;;;;;5046057;28;20216;-72
2023/01/17 12:23:20;;;;;;;5.93;3.28;;;6.30;71.00;;;;;;5051947;28;20219;-72
2023/01/17 12:26:01;;;;;;;5.20;2.83;;;6.30;70.30;;;;;;5044486;28;20866;-71
2023/01/17 12:29:00;;;;;;;7.90;4.18;;;6.20;70.30;;;;;;5048707;28;20212;-71
2023/01/17 12:31:33;;;;;;;11.88;5.25;;;6.20;70.10;;;;;;5050530;28;20349;-71
2023/01/17 12:34:17;;;;;;;18.85;8.52;;;6.10;70.10;;;;;;5047694;28;20576;-71
2023/01/17 12:36:51;;;;;;;11.90;5.00;;;6.10;69.70;;;;;;5049664;28;20202;-71
2023/01/17 12:39:24;;;;;;;16.08;8.27;;;6.00;69.80;;;;;;5050389;28;20282;-72
2023/01/17 12:41:59;;;;;;;12.40;6.80;;;6.00;69.70;;;;;;5051262;28;20621;-71
2023/01/17 12:44:41;;;;;;;6.00;3.40;;;6.00;69.80;;;;;;5049947;28;20220;-71
2023/01/17 12:47:10;;;;;;;7.22;3.35;;;6.00;69.50;;;;;;5049763;28;20197;-71
2023/01/17 12:49:45;;;;;;;14.65;7.68;;;6.00;69.60;;;;;;5045515;28;20201;-72
2023/01/17 12:52:21;;;;;;;12.80;7.05;;;6.00;69.50;;;;;;5045400;28;20704;-71
2023/01/17 12:54:55;;;;;;;16.23;7.05;;;6.00;69.40;;;;;;5044813;28;20202;-71
2023/01/17 12:57:27;;;;;;;16.23;8.95;;;6.00;69.30;;;;;;5045939;28;20216;-71
2023/01/17 13:00:02;;;;;;;14.68;7.85;;;6.00;69.30;;;;;;5045271;28;20259;-70
2023/01/17 13:02:36;;;;;;;11.32;6.15;;;6.00;69.10;;;;;;5059926;28;20262;-72
2023/01/17 13:05:10;;;;;;;10.77;5.60;;;6.00;69.00;;;;;;5042371;28;20694;-71
2023/01/17 13:07:46;;;;;;;6.35;3.63;;;6.00;68.70;;;;;;5042581;28;20261;-71
2023/01/17 13:10:25;;;;;;;12.10;4.10;;;5.90;68.60;;;;;;5047672;28;20355;-71
2023/01/17 13:12:56;;;;;;;8.52;3.88;;;5.90;68.60;;;;;;5051150;28;20282;-72
2023/01/17 13:15:34;;;;;;;7.78;3.80;;;5.90;68.20;;;;;;5053057;28;20190;-71
2023/01/17 13:18:08;;;;;;;6.70;2.60;;;5.90;68.20;;;;;;5047365;28;20224;-71
2023/01/17 13:21:03;;;;;;;4.90;2.80;;;5.90;68.20;;;;;;5049914;28;20207;-72
2023/01/17 13:23:44;;;;;;;6.95;3.50;;;5.90;68.10;;;;;;5053065;28;20250;-71
2023/01/17 13:26:22;;;;;;;5.63;2.55;;;5.90;67.50;;;;;;5053620;28;20216;-71
2023/01/17 13:28:56;;;;;;;8.40;3.78;;;5.90;67.60;;;;;;5045987;28;20777;-71
2023/01/17 13:31:46;;;;;;;7.00;3.30;;;5.90;67.60;;;;;;5047918;28;20749;-72
2023/01/17 13:34:32;;;;;;;7.28;4.35;;;6.00;67.40;;;;;;5040641;28;20216;-71
2023/01/17 13:37:24;;;;;;;12.68;5.40;;;6.00;67.30;;;;;;5053746;28;20236;-71
2023/01/17 13:40:19;;;;;;;9.02;4.10;;;6.10;67.50;;;;;;5049563;28;20249;-70
2023/01/17 13:42:53;;;;;;;7.50;3.10;;;6.10;67.40;;;;;;5047683;28;20224;-70
2023/01/17 13:45:24;;;;;;;7.07;2.83;;;6.10;67.00;;;;;;5047758;28;20278;-72
2023/01/17 13:48:09;;;;;;;12.43;3.95;;;6.10;66.90;;;;;;5044149;28;20244;-71
2023/01/17 13:50:52;;;;;;;5.15;2.97;;;6.10;66.90;;;;;;5048207;28;20208;-72
2023/01/17 13:53:48;;;;;;;8.07;2.97;;;6.10;66.90;;;;;;5046490;28;20204;-71
2023/01/17 13:56:25;;;;;;;7.32;3.42;;;6.20;67.00;;;;;;5050086;28;20205;-72
2023/01/17 13:59:05;;;;;;;12.82;6.90;;;6.20;66.90;;;;;;5050990;28;20239;-71
2023/01/17 14:01:52;;;;;;;14.77;7.05;;;6.20;66.60;;;;;;5048474;28;20212;-70
2023/01/17 14:04:23;;;;;;;12.82;6.30;;;6.30;66.80;;;;;;5047815;28;20200;-70
2023/01/17 14:06:55;;;;;;;12.98;5.32;;;6.30;66.80;;;;;;5049816;28;20233;-70
2023/01/17 14:09:27;;;;;;;11.05;4.70;;;6.40;66.40;;;;;;5048645;28;20241;-69
2023/01/17 14:11:59;;;;;;;15.10;5.93;;;6.30;66.30;;;;;;5037189;28;20211;-69
2023/01/17 14:14:48;;;;;;;21.60;7.93;;;6.30;66.00;;;;;;5048793;28;20215;-71
2023/01/17 14:17:48;;;;;;;12.82;5.20;;;6.20;65.50;;;;;;5047733;28;20220;-70
2023/01/17 14:20:48;;;;;;;13.32;6.05;;;6.20;65.90;;;;;;5048711;28;20208;-70
2023/01/17 14:23:32;;;;;;;8.50;4.13;;;6.20;65.90;;;;;;5049869;28;20199;-70
2023/01/17 14:26:16;;;;;;;11.48;3.97;;;6.20;66.00;;;;;;5042253;28;20213;-70
2023/01/17 14:28:44;;;;;;;9.88;3.58;;;6.20;65.80;;;;;;5045073;28;20287;-70
2023/01/17 14:31:15;;;;;;;12.00;3.72;;;6.10;65.80;;;;;;5042703;28;20258;-71
2023/01/17 14:33:43;;;;;;;10.50;4.35;;;6.10;65.50;;;;;;5042010;28;20215;-71
2023/01/17 14:36:20;;;;;;;15.93;6.60;;;6.00;65.50;;;;;;5043477;28;20205;-70
2023/01/17 14:38:50;;;;;;;10.00;5.20;;;6.00;65.80;;;;;;5044848;28;20227;-69
2023/01/17 14:41:21;;;;;;;18.77;6.85;;;6.00;65.90;;;;;;5032896;28;20464;-70
2023/01/17 14:43:50;;;;;;;15.60;6.90;;;6.00;65.80;;;;;;5023044;28;20941;-70
2023/01/17 14:46:27;;;;;;;12.85;6.13;;;6.00;65.80;;;;;;5024876;28;20270;-70
2023/01/17 14:49:01;;;;;;;25.42;11.30;;;5.90;66.00;;;;;;5041871;28;20293;-70